createdAt,value
2022-11-18T00:06:38.080Z,8.53
2022-11-18T00:16:42.465Z,8.67
2022-11-18T00:26:50.120Z,9.53
2022-11-18T00:36:52.250Z,7.63
2022-11-18T00:46:57.047Z,9.13
2022-11-18T00:57:00.336Z,9.17
2022-11-18T01:07:04.970Z,11.17
2022-11-18T01:17:07.165Z,11.07
2022-11-18T01:27:10.598Z,9.07
2022-11-18T01:37:17.345Z,9.40
2022-11-18T01:47:21.231Z,9.70
2022-11-18T01:57:27.893Z,10.53
2022-11-18T02:07:30.253Z,8.70
2022-11-18T02:18:22.236Z,8.60
2022-11-18T02:28:29.598Z,8.47
2022-11-18T02:38:41.341Z,8.70
2022-11-18T02:48:50.267Z,8.50
2022-11-18T02:58:57.632Z,8.20
2022-11-18T03:09:05.311Z,8.17
2022-11-18T03:19:36.059Z,7.57
2022-11-18T03:29:45.453Z,8.30
2022-11-18T03:39:54.258Z,8.53
2022-11-18T03:50:15.090Z,11.10
2022-11-18T04:00:18.159Z,9.87
2022-11-18T04:10:22.592Z,10.63
2022-11-18T04:20:25.113Z,7.40
2022-11-18T04:30:27.666Z,8.33
2022-11-18T04:40:29.901Z,7.00
2022-11-18T04:50:32.086Z,8.30
2022-11-18T05:00:36.671Z,8.10
2022-11-18T05:10:39.102Z,8.23
2022-11-18T05:20:42.087Z,9.00
2022-11-18T05:30:46.504Z,7.70
2022-11-18T05:40:48.877Z,4.47
2022-11-18T05:50:52.838Z,6.03
2022-11-18T06:00:58.713Z,5.80
2022-11-18T06:11:07.127Z,3.07
2022-11-18T06:21:11.657Z,4.27
2022-11-18T06:31:19.081Z,5.80
2022-11-18T06:41:21.143Z,8.37
2022-11-18T06:51:27.638Z,4.47
2022-11-18T07:01:41.607Z,3.77
2022-11-18T07:11:48.579Z,4.30
2022-11-18T07:21:53.566Z,5.30
2022-11-18T07:32:00.490Z,4.00
2022-11-18T07:42:06.332Z,3.00
2022-11-18T07:52:10.627Z,4.53
2022-11-18T08:02:15.679Z,2.40
2022-11-18T08:12:17.873Z,3.53
2022-11-18T08:22:20.946Z,2.30
2022-11-18T08:32:29.151Z,5.07
2022-11-18T08:42:34.634Z,3.20
2022-11-18T08:52:37.358Z,4.17
2022-11-18T09:02:45.421Z,4.60
2022-11-18T09:12:50.841Z,4.67
2022-11-18T09:22:58.768Z,4.47
2022-11-18T09:33:07.385Z,3.63
2022-11-18T09:43:21.871Z,1.93
2022-11-18T09:53:29.690Z,4.13
2022-11-18T10:03:34.413Z,3.80
2022-11-18T10:13:57.051Z,2.47
2022-11-18T10:24:21.640Z,3.93
2022-11-18T10:34:30.703Z,3.93
2022-11-18T10:44:41.726Z,2.40
2022-11-18T10:55:06.325Z,3.70
2022-11-18T11:05:21.104Z,1.40
2022-11-18T11:15:34.696Z,2.90
2022-11-18T11:36:39.901Z,4.47
2022-11-18T11:47:26.745Z,3.13
2022-11-18T11:58:02.444Z,3.07
2022-11-18T12:08:09.133Z,3.53
2022-11-18T12:18:25.731Z,2.20
2022-11-18T12:28:49.171Z,3.03
2022-11-18T12:38:53.635Z,3.30
2022-11-18T12:48:55.666Z,2.97
2022-11-18T12:59:01.211Z,2.47
2022-11-18T13:09:13.013Z,2.73
2022-11-18T13:19:22.913Z,2.47
2022-11-18T13:29:53.673Z,3.67
2022-11-18T13:39:59.291Z,3.20
2022-11-18T13:50:22.644Z,3.40
2022-11-18T14:00:32.216Z,2.70
2022-11-18T14:10:44.392Z,4.43
2022-11-18T14:20:55.629Z,3.47
2022-11-18T14:31:20.709Z,3.27
2022-11-18T14:41:46.710Z,5.50
2022-11-18T14:51:52.071Z,4.40
2022-11-18T15:01:54.251Z,5.07
2022-11-18T15:11:59.253Z,5.30
2022-11-18T15:22:03.603Z,6.53
2022-11-18T15:32:08.789Z,5.77
2022-11-18T15:42:23.094Z,4.63
2022-11-18T15:52:28.618Z,6.13
2022-11-18T16:02:35.995Z,6.40
2022-11-18T16:12:47.129Z,4.10
2022-11-18T16:22:54.548Z,3.73
2022-11-18T16:32:59.118Z,7.17
2022-11-18T16:43:06.387Z,4.50
2022-11-18T16:53:10.485Z,4.10
2022-11-18T17:03:12.756Z,3.03
2022-11-18T17:13:14.862Z,4.70
2022-11-18T17:23:20.200Z,4.73
2022-11-18T17:33:26.762Z,6.57
2022-11-18T17:43:29.307Z,5.47
2022-11-18T17:53:32.946Z,5.17
2022-11-18T18:03:40.775Z,5.53
2022-11-18T18:14:03.124Z,5.57
2022-11-18T18:24:06.851Z,7.43
2022-11-18T18:34:11.219Z,4.60
2022-11-18T18:44:18.957Z,4.23
2022-11-18T18:54:26.005Z,7.07
2022-11-18T19:04:34.584Z,4.30
2022-11-18T19:14:39.267Z,7.23
2022-11-18T19:24:49.598Z,5.00
2022-11-18T19:34:53.624Z,5.57
2022-11-18T19:45:02.798Z,4.60
2022-11-18T19:55:06.134Z,7.83
2022-11-18T20:05:28.219Z,5.23
2022-11-18T20:15:31.357Z,5.63
2022-11-18T20:25:40.170Z,3.67
2022-11-18T20:35:44.635Z,6.57
2022-11-18T20:45:56.142Z,7.43
2022-11-18T20:56:07.564Z,8.00
2022-11-18T21:06:14.214Z,6.07
2022-11-18T21:16:16.904Z,6.83
2022-11-18T21:26:18.926Z,5.50
2022-11-18T21:36:24.290Z,8.00
2022-11-18T21:46:31.444Z,3.77
2022-11-18T21:56:36.187Z,10.67
2022-11-18T22:06:40.896Z,4.70
2022-11-18T22:16:51.480Z,5.87
2022-11-18T22:26:56.210Z,4.70
2022-11-18T22:36:58.177Z,7.43
2022-11-18T22:47:02.573Z,6.03
2022-11-18T22:57:12.236Z,5.17
2022-11-18T23:07:21.221Z,8.30
2022-11-18T23:17:25.626Z,8.30
2022-11-18T23:27:29.954Z,6.43
2022-11-18T23:37:34.219Z,9.63
2022-11-18T23:47:41.615Z,8.13
2022-11-18T23:57:48.610Z,6.60
